Dana Pride — WE00 — position and weather

sailwx.info

Track history (hours):
 
Tides and Currents Weather Stations Pressure Air Temp Water Temp Dewpoint Dewpoint Depression Visibility Wind Speed Wind Dir Waves Ship Positions

Dana Pride

Last reported at 2017-Nov-20 00:31 UTC. Time now 2017-Nov-24 00:11 UTC.
Position N 33°25' W 117°38'.

Type: Fishing. MMSI: 366849310.

Date/timePositionNaut miles runAvg speedWind from/ knotsBaromVisibWave heightAir tempDewpointWater temp
2017-Nov-20 00:31N 33°25' W 117°38'0 0.7
2017-Nov-20 00:01N 33°24' W 117°38'0 0.0
2017-Nov-19 23:31N 33°24' W 117°38'1 2.9
2017-Nov-19 23:01N 33°25' W 117°39'2 3.2
2017-Nov-19 22:31N 33°26' W 117°41'1 1.1
2017-Nov-19 22:01N 33°26' W 117°42'0 0.0
2017-Nov-19 21:30N 33°26' W 117°42'0 0.6
2017-Nov-19 21:00N 33°26' W 117°41'1 2.7
2017-Nov-19 20:31N 33°28' W 117°42'0 0.0
2017-Nov-19 20:01N 33°28' W 117°42'2 3.5
2017-Nov-19 19:31N 33°26' W 117°41'3 6.9
2017-Nov-19 19:01N 33°23' W 117°38'0 0.0
2017-Nov-19 18:31N 33°23' W 117°38'0 0.0
2017-Nov-19 18:01N 33°23' W 117°38'0 0.0
2017-Nov-19 17:31N 33°23' W 117°38'0 0.0
2017-Nov-19 17:01N 33°23' W 117°38'0 0.1
2017-Nov-19 16:31N 33°23' W 117°38'0 0.1
2017-Nov-19 16:00N 33°23' W 117°38'0 0.1
2017-Nov-19 15:31N 33°23' W 117°38'4 7.3
2017-Nov-19 15:00N 33°26' W 117°41'2 3.3
2017-Nov-19 14:31N 33°28' W 117°42'0 0.0
2017-Nov-19 13:55N 33°28' W 117°42'0 0.0
2017-Nov-19 13:31N 33°28' W 117°42'0 0.0
2017-Nov-19 13:00N 33°28' W 117°42'0 0.0
2017-Nov-19 12:30N 33°28' W 117°42'0 0.0
2017-Nov-19 12:01N 33°28' W 117°42'0 0.0
2017-Nov-19 11:30N 33°28' W 117°42'0 0.0
2017-Nov-19 11:00N 33°28' W 117°42'0 0.0
2017-Nov-19 10:30N 33°28' W 117°42'0 0.0
2017-Nov-19 09:58N 33°28' W 117°42'0 0.0
2017-Nov-19 09:30N 33°28' W 117°42'0 0.0
2017-Nov-19 08:57N 33°28' W 117°42'0 0.0
2017-Nov-19 08:30N 33°28' W 117°42'0 0.0
2017-Nov-19 08:00N 33°28' W 117°42'0 0.0
2017-Nov-19 07:30N 33°28' W 117°42'0 0.0
2017-Nov-19 07:00N 33°28' W 117°42'0 0.0
2017-Nov-19 06:29N 33°28' W 117°42'0 0.0
2017-Nov-19 06:00N 33°28' W 117°42'0 0.0
2017-Nov-19 05:30N 33°28' W 117°42'0 0.0
2017-Nov-19 05:01N 33°28' W 117°42'0 0.0
2017-Nov-19 04:31N 33°28' W 117°42'0 0.0
2017-Nov-19 04:00N 33°28' W 117°42'0 0.0
2017-Nov-19 03:31N 33°28' W 117°42'0 0.0
2017-Nov-19 03:01N 33°28' W 117°42'0 0.0
2017-Nov-19 02:30N 33°28' W 117°42'0 0.0
2017-Nov-19 02:00N 33°28' W 117°42'0 0.0
2017-Nov-19 01:30N 33°28' W 117°42'0 0.0
2017-Nov-19 01:01N 33°28' W 117°42'3 6.8
2017-Nov-19 00:30N 33°25' W 117°39'2 3.1
2017-Nov-19 00:00N 33°24' W 117°37'1 1.4
2017-Nov-18 23:30N 33°25' W 117°38'0 0.3
2017-Nov-18 23:00N 33°25' W 117°38'0 0.0
2017-Nov-18 22:31N 33°25' W 117°38'0 0.0
2017-Nov-18 22:00N 33°25' W 117°38'0 0.6
2017-Nov-18 21:30N 33°24' W 117°38'0 0.0
2017-Nov-18 21:00N 33°24' W 117°38'0 0.6
2017-Nov-18 20:30N 33°24' W 117°39'4 8.1
2017-Nov-18 20:01N 33°28' W 117°42'0 0.1
2017-Nov-18 19:30N 33°28' W 117°42'5 9.4
2017-Nov-18 19:01N 33°24' W 117°39'1 1.0
2017-Nov-18 18:30N 33°23' W 117°38'0 0.0
2017-Nov-18 18:00N 33°23' W 117°38'0 0.0
2017-Nov-18 17:29N 33°23' W 117°38'0 0.0
2017-Nov-18 17:00N 33°23' W 117°38'0 0.0
2017-Nov-18 16:26N 33°23' W 117°38'0 0.0
2017-Nov-18 16:00N 33°23' W 117°38'0 0.0
2017-Nov-18 15:30N 33°23' W 117°38'5 1.4
2017-Nov-18 11:47N 33°28' W 117°42'0 0.0
2017-Nov-18 11:16N 33°28' W 117°42'0 0.0
2017-Nov-18 11:00N 33°28' W 117°42'0 0.0
2017-Nov-18 10:22N 33°28' W 117°42'0 0.0
2017-Nov-18 09:59N 33°28' W 117°42'0 0.0
2017-Nov-18 09:24N 33°28' W 117°42'0 0.0
2017-Nov-18 09:00N 33°28' W 117°42'0 0.0
2017-Nov-18 08:30N 33°28' W 117°42'0 0.0
2017-Nov-18 07:59N 33°28' W 117°42'0 0.0
2017-Nov-18 07:24N 33°28' W 117°42'0 0.0
2017-Nov-18 06:55N 33°28' W 117°42'0 0.0
2017-Nov-18 06:23N 33°28' W 117°42'0 0.0
2017-Nov-18 05:58N 33°28' W 117°42'0 0.0
2017-Nov-18 05:30N 33°28' W 117°42'0 0.0
2017-Nov-18 04:52N 33°28' W 117°42'0 0.0
2017-Nov-18 04:30N 33°28' W 117°42'0 0.0
2017-Nov-18 03:59N 33°28' W 117°42'0 0.0
2017-Nov-18 03:26N 33°28' W 117°42'0 0.0
2017-Nov-18 03:00N 33°28' W 117°42'0 0.0
2017-Nov-18 02:24N 33°28' W 117°42'0 0.0
2017-Nov-18 01:59N 33°28' W 117°42'0 0.0
2017-Nov-18 01:30N 33°28' W 117°42'0 0.0
2017-Nov-18 01:01N 33°28' W 117°42'0 0.0
2017-Nov-18 00:30N 33°28' W 117°42'0 0.0
2017-Nov-18 00:01N 33°28' W 117°42'0 0.2
2017-Nov-17 23:31N 33°28' W 117°41'2 4.6
2017-Nov-17 23:01N 33°26' W 117°40'2 3.6
2017-Nov-17 22:30N 33°24' W 117°38'2 3.1
2017-Nov-17 22:01N 33°26' W 117°39'1 1.1
2017-Nov-17 21:31N 33°26' W 117°40'1 1.2
2017-Nov-17 21:01N 33°26' W 117°41'1 1.2
2017-Nov-17 20:31N 33°27' W 117°41'0 0.0
2017-Nov-17 20:01N 33°27' W 117°41'1 1.1
2017-Nov-17 19:31N 33°26' W 117°42'2 3.5
2017-Nov-17 19:00N 33°27' W 117°43'0 0.0
2017-Nov-17 18:30N 33°27' W 117°43'2 3.1
2017-Nov-17 18:00N 33°28' W 117°42'0 0.0
2017-Nov-17 17:31N 33°28' W 117°42'0 0.2
2017-Nov-17 16:53N 33°27' W 117°41'  
2017-Nov-12 20:23N 33°28' W 117°42'0 0.6
2017-Nov-12 20:00N 33°27' W 117°42'4 8.2
2017-Nov-12 19:29N 33°23' W 117°42'1 2.3
2017-Nov-12 19:00N 33°23' W 117°43'3 4.6
2017-Nov-12 18:18N 33°26' W 117°43'2 0.6
2017-Nov-12 14:50N 33°28' W 117°42'0 0.0
2017-Nov-12 14:31N 33°28' W 117°42'0 0.0
2017-Nov-12 14:00N 33°28' W 117°42'0 0.0
2017-Nov-12 13:30N 33°28' W 117°42'0 0.0
2017-Nov-12 13:00N 33°28' W 117°42'0 0.0
2017-Nov-12 12:25N 33°28' W 117°42'0 0.0
2017-Nov-12 12:01N 33°28' W 117°42'0 0.0
2017-Nov-12 11:28N 33°28' W 117°42'0 0.0
2017-Nov-12 10:58N 33°28' W 117°42'0 0.0
2017-Nov-12 10:28N 33°28' W 117°42'0 0.0
2017-Nov-12 09:57N 33°28' W 117°42'0 0.0
2017-Nov-12 09:29N 33°28' W 117°42'0 0.0
2017-Nov-12 08:57N 33°28' W 117°42'0 0.0
2017-Nov-12 08:27N 33°28' W 117°42'0 0.0
2017-Nov-12 07:59N 33°28' W 117°42'0 0.0
2017-Nov-12 06:18N 33°28' W 117°42'0 0.0
2017-Nov-12 06:00N 33°28' W 117°42'0 0.0
2017-Nov-12 05:26N 33°28' W 117°42'0 0.0
2017-Nov-12 05:00N 33°28' W 117°42'0 0.0
2017-Nov-12 04:30N 33°28' W 117°42'0 0.0
2017-Nov-12 02:08N 33°28' W 117°42'0 0.0
2017-Nov-12 01:59N 33°28' W 117°42'0 0.0
2017-Nov-12 01:30N 33°28' W 117°42'0 0.0
2017-Nov-12 01:00N 33°28' W 117°42'0 0.0
2017-Nov-12 00:23N 33°28' W 117°42'2 4.7
2017-Nov-11 23:51N 33°25' W 117°41'3 8.4
2017-Nov-11 23:30N 33°23' W 117°43'3 5.2
2017-Nov-11 22:54N 33°26' W 117°45'4 6.2
2017-Nov-11 22:18N 33°27' W 117°42'4 6.1
2017-Nov-11 21:40N 33°24' W 117°44'2 8.7
2017-Nov-11 21:30N 33°23' W 117°44'3 5.8
2017-Nov-11 20:58N 33°25' W 117°43'1 2.3
2017-Nov-11 20:28N 33°26' W 117°42'6 3.9
2017-Nov-11 18:54N 33°26' W 117°49'4 9.9
2017-Nov-11 18:28N 33°25' W 117°44'4 8.3
2017-Nov-11 18:00N 33°28' W 117°42'0 0.0
2017-Nov-11 13:04N 33°28' W 117°42'0 0.0
2017-Nov-11 12:17N 33°28' W 117°42'0 0.0
2017-Nov-11 11:57N 33°28' W 117°42'0 0.0
2017-Nov-11 11:18N 33°28' W 117°42'0 0.0
2017-Nov-11 09:19N 33°28' W 117°42'0 0.0
2017-Nov-11 08:46N 33°28' W 117°42'0 0.0
2017-Nov-11 08:20N 33°28' W 117°42'0 0.0
2017-Nov-11 07:29N 33°28' W 117°42'0 0.0
2017-Nov-11 06:37N 33°28' W 117°42'0 0.0
2017-Nov-11 06:14N 33°28' W 117°42'0 0.0
2017-Nov-11 05:58N 33°28' W 117°42'0 0.0
2017-Nov-11 05:22N 33°28' W 117°42'0 0.0
2017-Nov-11 04:08N 33°28' W 117°42'0 0.0
2017-Nov-11 03:56N 33°28' W 117°42'0 0.0
2017-Nov-11 03:29N 33°28' W 117°42'0 0.0
2017-Nov-11 02:38N 33°28' W 117°42'0 0.0
2017-Nov-11 02:28N 33°28' W 117°42'0 0.0
2017-Nov-11 01:57N 33°28' W 117°42'3 2.0
2017-Nov-11 00:35N 33°25' W 117°43'110.1
2017-Nov-11 00:29N 33°26' W 117°43'2 3.5
2017-Nov-11 00:00N 33°28' W 117°42'0 0.0
2017-Nov-10 23:29N 33°28' W 117°42'0 0.6
2017-Nov-10 22:59N 33°27' W 117°41'1 0.8
2017-Nov-10 21:38N 33°26' W 117°42'0 0.0
2017-Nov-10 21:30N 33°26' W 117°42'0 0.0
2017-Nov-10 20:47N 33°26' W 117°42'0 0.8
2017-Nov-10 20:28N 33°26' W 117°42'0 0.2
2017-Nov-10 20:00N 33°26' W 117°42'0 0.0
2017-Nov-10 19:30N 33°26' W 117°42'1 2.7
2017-Nov-10 19:00N 33°27' W 117°43'0 0.4
2017-Nov-10 18:23N 33°26' W 117°43'2 5.2
2017-Nov-10 18:00N 33°28' W 117°42'0 0.0
2017-Nov-10 17:30N 33°28' W 117°42'0 0.0
2017-Nov-10 16:56N 33°28' W 117°42'0 0.0
2017-Nov-10 16:28N 33°28' W 117°42'0 0.0
2017-Nov-10 15:59N 33°28' W 117°42'0 0.0
2017-Nov-10 15:29N 33°28' W 117°42'0 0.0
2017-Nov-10 15:00N 33°28' W 117°42'0 0.0
2017-Nov-10 14:29N 33°28' W 117°42'0 0.0
2017-Nov-10 14:00N 33°28' W 117°42'0 0.0
2017-Nov-10 13:29N 33°28' W 117°42'0 0.0
2017-Nov-10 13:00N 33°28' W 117°42'0 0.0
2017-Nov-10 12:25N 33°28' W 117°42'0 0.0
2017-Nov-10 12:00N 33°28' W 117°42'0 0.0
2017-Nov-10 11:29N 33°28' W 117°42'0 0.0
2017-Nov-10 10:52N 33°28' W 117°42'0 0.0
2017-Nov-10 10:20N 33°28' W 117°42'0 0.0
2017-Nov-10 09:57N 33°28' W 117°42'0 0.0
2017-Nov-10 09:23N 33°28' W 117°42'0 0.0
2017-Nov-10 09:00N 33°28' W 117°42'0 0.0
2017-Nov-10 08:29N 33°28' W 117°42'0 0.0
2017-Nov-10 07:59N 33°28' W 117°42'0 0.0
2017-Nov-10 07:25N 33°28' W 117°42'0 0.0
2017-Nov-10 07:00N 33°28' W 117°42'0 0.0
2017-Nov-10 06:30N 33°28' W 117°42'0 0.0
2017-Nov-10 06:00N 33°28' W 117°42'0 0.0
2017-Nov-10 05:30N 33°28' W 117°42'0 0.0
2017-Nov-10 05:00N 33°28' W 117°42'0 0.0
2017-Nov-10 04:30N 33°28' W 117°42'0 0.0
2017-Nov-10 04:00N 33°28' W 117°42'0 0.0
2017-Nov-10 03:30N 33°28' W 117°42'0 0.0
2017-Nov-10 03:00N 33°28' W 117°42'0 0.0
2017-Nov-10 02:30N 33°28' W 117°42'0 0.0
2017-Nov-10 02:00N 33°28' W 117°42'0 0.0
2017-Nov-10 01:30N 33°28' W 117°42'0 0.0
2017-Nov-10 01:00N 33°28' W 117°42'  
Track history (hours):
 
Tides and Currents Weather Stations Pressure Air Temp Water Temp Dewpoint Dewpoint Depression Visibility Wind Speed Wind Dir Waves Ship Positions

Dana Pride

Last reported at 2017-Nov-20 00:31 UTC. Time now 2017-Nov-24 00:11 UTC.
Position N 33°25' W 117°38'.

Type: Fishing. MMSI: 366849310.

Date/timePositionNaut miles runAvg speedWind from/ knotsBaromVisibWave heightAir tempDewpointWater temp
2017-Nov-20 00:31N 33°25' W 117°38'0 0.7
2017-Nov-20 00:01N 33°24' W 117°38'0 0.0
2017-Nov-19 23:31N 33°24' W 117°38'1 2.9
2017-Nov-19 23:01N 33°25' W 117°39'2 3.2
2017-Nov-19 22:31N 33°26' W 117°41'1 1.1
2017-Nov-19 22:01N 33°26' W 117°42'0 0.0
2017-Nov-19 21:30N 33°26' W 117°42'0 0.6
2017-Nov-19 21:00N 33°26' W 117°41'1 2.7
2017-Nov-19 20:31N 33°28' W 117°42'0 0.0
2017-Nov-19 20:01N 33°28' W 117°42'2 3.5
2017-Nov-19 19:31N 33°26' W 117°41'3 6.9
2017-Nov-19 19:01N 33°23' W 117°38'0 0.0
2017-Nov-19 18:31N 33°23' W 117°38'0 0.0
2017-Nov-19 18:01N 33°23' W 117°38'0 0.0
2017-Nov-19 17:31N 33°23' W 117°38'0 0.0
2017-Nov-19 17:01N 33°23' W 117°38'0 0.1
2017-Nov-19 16:31N 33°23' W 117°38'0 0.1
2017-Nov-19 16:00N 33°23' W 117°38'0 0.1
2017-Nov-19 15:31N 33°23' W 117°38'4 7.3
2017-Nov-19 15:00N 33°26' W 117°41'2 3.3
2017-Nov-19 14:31N 33°28' W 117°42'0 0.0
2017-Nov-19 13:55N 33°28' W 117°42'0 0.0
2017-Nov-19 13:31N 33°28' W 117°42'0 0.0
2017-Nov-19 13:00N 33°28' W 117°42'0 0.0
2017-Nov-19 12:30N 33°28' W 117°42'0 0.0
2017-Nov-19 12:01N 33°28' W 117°42'0 0.0
2017-Nov-19 11:30N 33°28' W 117°42'0 0.0
2017-Nov-19 11:00N 33°28' W 117°42'0 0.0
2017-Nov-19 10:30N 33°28' W 117°42'0 0.0
2017-Nov-19 09:58N 33°28' W 117°42'0 0.0
2017-Nov-19 09:30N 33°28' W 117°42'0 0.0
2017-Nov-19 08:57N 33°28' W 117°42'0 0.0
2017-Nov-19 08:30N 33°28' W 117°42'0 0.0
2017-Nov-19 08:00N 33°28' W 117°42'0 0.0
2017-Nov-19 07:30N 33°28' W 117°42'0 0.0
2017-Nov-19 07:00N 33°28' W 117°42'0 0.0
2017-Nov-19 06:29N 33°28' W 117°42'0 0.0
2017-Nov-19 06:00N 33°28' W 117°42'0 0.0
2017-Nov-19 05:30N 33°28' W 117°42'0 0.0
2017-Nov-19 05:01N 33°28' W 117°42'0 0.0
2017-Nov-19 04:31N 33°28' W 117°42'0 0.0
2017-Nov-19 04:00N 33°28' W 117°42'0 0.0
2017-Nov-19 03:31N 33°28' W 117°42'0 0.0
2017-Nov-19 03:01N 33°28' W 117°42'0 0.0
2017-Nov-19 02:30N 33°28' W 117°42'0 0.0
2017-Nov-19 02:00N 33°28' W 117°42'0 0.0
2017-Nov-19 01:30N 33°28' W 117°42'0 0.0
2017-Nov-19 01:01N 33°28' W 117°42'3 6.8
2017-Nov-19 00:30N 33°25' W 117°39'2 3.1
2017-Nov-19 00:00N 33°24' W 117°37'1 1.4
2017-Nov-18 23:30N 33°25' W 117°38'0 0.3
2017-Nov-18 23:00N 33°25' W 117°38'0 0.0
2017-Nov-18 22:31N 33°25' W 117°38'0 0.0
2017-Nov-18 22:00N 33°25' W 117°38'0 0.6
2017-Nov-18 21:30N 33°24' W 117°38'0 0.0
2017-Nov-18 21:00N 33°24' W 117°38'0 0.6
2017-Nov-18 20:30N 33°24' W 117°39'4 8.1
2017-Nov-18 20:01N 33°28' W 117°42'0 0.1
2017-Nov-18 19:30N 33°28' W 117°42'5 9.4
2017-Nov-18 19:01N 33°24' W 117°39'1 1.0
2017-Nov-18 18:30N 33°23' W 117°38'0 0.0
2017-Nov-18 18:00N 33°23' W 117°38'0 0.0
2017-Nov-18 17:29N 33°23' W 117°38'0 0.0
2017-Nov-18 17:00N 33°23' W 117°38'0 0.0
2017-Nov-18 16:26N 33°23' W 117°38'0 0.0
2017-Nov-18 16:00N 33°23' W 117°38'0 0.0
2017-Nov-18 15:30N 33°23' W 117°38'5 1.4
2017-Nov-18 11:47N 33°28' W 117°42'0 0.0
2017-Nov-18 11:16N 33°28' W 117°42'0 0.0
2017-Nov-18 11:00N 33°28' W 117°42'0 0.0
2017-Nov-18 10:22N 33°28' W 117°42'0 0.0
2017-Nov-18 09:59N 33°28' W 117°42'0 0.0
2017-Nov-18 09:24N 33°28' W 117°42'0 0.0
2017-Nov-18 09:00N 33°28' W 117°42'0 0.0
2017-Nov-18 08:30N 33°28' W 117°42'0 0.0
2017-Nov-18 07:59N 33°28' W 117°42'0 0.0
2017-Nov-18 07:24N 33°28' W 117°42'0 0.0
2017-Nov-18 06:55N 33°28' W 117°42'0 0.0
2017-Nov-18 06:23N 33°28' W 117°42'0 0.0
2017-Nov-18 05:58N 33°28' W 117°42'0 0.0
2017-Nov-18 05:30N 33°28' W 117°42'0 0.0
2017-Nov-18 04:52N 33°28' W 117°42'0 0.0
2017-Nov-18 04:30N 33°28' W 117°42'0 0.0
2017-Nov-18 03:59N 33°28' W 117°42'0 0.0
2017-Nov-18 03:26N 33°28' W 117°42'0 0.0
2017-Nov-18 03:00N 33°28' W 117°42'0 0.0
2017-Nov-18 02:24N 33°28' W 117°42'0 0.0
2017-Nov-18 01:59N 33°28' W 117°42'0 0.0
2017-Nov-18 01:30N 33°28' W 117°42'0 0.0
2017-Nov-18 01:01N 33°28' W 117°42'0 0.0
2017-Nov-18 00:30N 33°28' W 117°42'0 0.0
2017-Nov-18 00:01N 33°28' W 117°42'0 0.2
2017-Nov-17 23:31N 33°28' W 117°41'2 4.6
2017-Nov-17 23:01N 33°26' W 117°40'2 3.6
2017-Nov-17 22:30N 33°24' W 117°38'2 3.1
2017-Nov-17 22:01N 33°26' W 117°39'1 1.1
2017-Nov-17 21:31N 33°26' W 117°40'1 1.2
2017-Nov-17 21:01N 33°26' W 117°41'1 1.2
2017-Nov-17 20:31N 33°27' W 117°41'0 0.0
2017-Nov-17 20:01N 33°27' W 117°41'1 1.1
2017-Nov-17 19:31N 33°26' W 117°42'2 3.5
2017-Nov-17 19:00N 33°27' W 117°43'0 0.0
2017-Nov-17 18:30N 33°27' W 117°43'2 3.1
2017-Nov-17 18:00N 33°28' W 117°42'0 0.0
2017-Nov-17 17:31N 33°28' W 117°42'0 0.2
2017-Nov-17 16:53N 33°27' W 117°41'  
2017-Nov-12 20:23N 33°28' W 117°42'0 0.6
2017-Nov-12 20:00N 33°27' W 117°42'4 8.2
2017-Nov-12 19:29N 33°23' W 117°42'1 2.3
2017-Nov-12 19:00N 33°23' W 117°43'3 4.6
2017-Nov-12 18:18N 33°26' W 117°43'2 0.6
2017-Nov-12 14:50N 33°28' W 117°42'0 0.0
2017-Nov-12 14:31N 33°28' W 117°42'0 0.0
2017-Nov-12 14:00N 33°28' W 117°42'0 0.0
2017-Nov-12 13:30N 33°28' W 117°42'0 0.0
2017-Nov-12 13:00N 33°28' W 117°42'0 0.0
2017-Nov-12 12:25N 33°28' W 117°42'0 0.0
2017-Nov-12 12:01N 33°28' W 117°42'0 0.0
2017-Nov-12 11:28N 33°28' W 117°42'0 0.0
2017-Nov-12 10:58N 33°28' W 117°42'0 0.0
2017-Nov-12 10:28N 33°28' W 117°42'0 0.0
2017-Nov-12 09:57N 33°28' W 117°42'0 0.0
2017-Nov-12 09:29N 33°28' W 117°42'0 0.0
2017-Nov-12 08:57N 33°28' W 117°42'0 0.0
2017-Nov-12 08:27N 33°28' W 117°42'0 0.0
2017-Nov-12 07:59N 33°28' W 117°42'0 0.0
2017-Nov-12 06:18N 33°28' W 117°42'0 0.0
2017-Nov-12 06:00N 33°28' W 117°42'0 0.0
2017-Nov-12 05:26N 33°28' W 117°42'0 0.0
2017-Nov-12 05:00N 33°28' W 117°42'0 0.0
2017-Nov-12 04:30N 33°28' W 117°42'0 0.0
2017-Nov-12 02:08N 33°28' W 117°42'0 0.0
2017-Nov-12 01:59N 33°28' W 117°42'0 0.0
2017-Nov-12 01:30N 33°28' W 117°42'0 0.0
2017-Nov-12 01:00N 33°28' W 117°42'0 0.0
2017-Nov-12 00:23N 33°28' W 117°42'2 4.7
2017-Nov-11 23:51N 33°25' W 117°41'3 8.4
2017-Nov-11 23:30N 33°23' W 117°43'3 5.2
2017-Nov-11 22:54N 33°26' W 117°45'4 6.2
2017-Nov-11 22:18N 33°27' W 117°42'4 6.1
2017-Nov-11 21:40N 33°24' W 117°44'2 8.7
2017-Nov-11 21:30N 33°23' W 117°44'3 5.8
2017-Nov-11 20:58N 33°25' W 117°43'1 2.3
2017-Nov-11 20:28N 33°26' W 117°42'6 3.9
2017-Nov-11 18:54N 33°26' W 117°49'4 9.9
2017-Nov-11 18:28N 33°25' W 117°44'4 8.3
2017-Nov-11 18:00N 33°28' W 117°42'0 0.0
2017-Nov-11 13:04N 33°28' W 117°42'0 0.0
2017-Nov-11 12:17N 33°28' W 117°42'0 0.0
2017-Nov-11 11:57N 33°28' W 117°42'0 0.0
2017-Nov-11 11:18N 33°28' W 117°42'0 0.0
2017-Nov-11 09:19N 33°28' W 117°42'0 0.0
2017-Nov-11 08:46N 33°28' W 117°42'0 0.0
2017-Nov-11 08:20N 33°28' W 117°42'0 0.0
2017-Nov-11 07:29N 33°28' W 117°42'0 0.0
2017-Nov-11 06:37N 33°28' W 117°42'0 0.0
2017-Nov-11 06:14N 33°28' W 117°42'0 0.0
2017-Nov-11 05:58N 33°28' W 117°42'0 0.0
2017-Nov-11 05:22N 33°28' W 117°42'0 0.0
2017-Nov-11 04:08N 33°28' W 117°42'0 0.0
2017-Nov-11 03:56N 33°28' W 117°42'0 0.0
2017-Nov-11 03:29N 33°28' W 117°42'0 0.0
2017-Nov-11 02:38N 33°28' W 117°42'0 0.0
2017-Nov-11 02:28N 33°28' W 117°42'0 0.0
2017-Nov-11 01:57N 33°28' W 117°42'3 2.0
2017-Nov-11 00:35N 33°25' W 117°43'110.1
2017-Nov-11 00:29N 33°26' W 117°43'2 3.5
2017-Nov-11 00:00N 33°28' W 117°42'0 0.0
2017-Nov-10 23:29N 33°28' W 117°42'0 0.6
2017-Nov-10 22:59N 33°27' W 117°41'1 0.8
2017-Nov-10 21:38N 33°26' W 117°42'0 0.0
2017-Nov-10 21:30N 33°26' W 117°42'0 0.0
2017-Nov-10 20:47N 33°26' W 117°42'0 0.8
2017-Nov-10 20:28N 33°26' W 117°42'0 0.2
2017-Nov-10 20:00N 33°26' W 117°42'0 0.0
2017-Nov-10 19:30N 33°26' W 117°42'1 2.7
2017-Nov-10 19:00N 33°27' W 117°43'0 0.4
2017-Nov-10 18:23N 33°26' W 117°43'2 5.2
2017-Nov-10 18:00N 33°28' W 117°42'0 0.0
2017-Nov-10 17:30N 33°28' W 117°42'0 0.0
2017-Nov-10 16:56N 33°28' W 117°42'0 0.0
2017-Nov-10 16:28N 33°28' W 117°42'0 0.0
2017-Nov-10 15:59N 33°28' W 117°42'0 0.0
2017-Nov-10 15:29N 33°28' W 117°42'0 0.0
2017-Nov-10 15:00N 33°28' W 117°42'0 0.0
2017-Nov-10 14:29N 33°28' W 117°42'0 0.0
2017-Nov-10 14:00N 33°28' W 117°42'0 0.0
2017-Nov-10 13:29N 33°28' W 117°42'0 0.0
2017-Nov-10 13:00N 33°28' W 117°42'0 0.0
2017-Nov-10 12:25N 33°28' W 117°42'0 0.0
2017-Nov-10 12:00N 33°28' W 117°42'0 0.0
2017-Nov-10 11:29N 33°28' W 117°42'0 0.0
2017-Nov-10 10:52N 33°28' W 117°42'0 0.0
2017-Nov-10 10:20N 33°28' W 117°42'0 0.0
2017-Nov-10 09:57N 33°28' W 117°42'0 0.0
2017-Nov-10 09:23N 33°28' W 117°42'0 0.0
2017-Nov-10 09:00N 33°28' W 117°42'0 0.0
2017-Nov-10 08:29N 33°28' W 117°42'0 0.0
2017-Nov-10 07:59N 33°28' W 117°42'0 0.0
2017-Nov-10 07:25N 33°28' W 117°42'0 0.0
2017-Nov-10 07:00N 33°28' W 117°42'0 0.0
2017-Nov-10 06:30N 33°28' W 117°42'0 0.0
2017-Nov-10 06:00N 33°28' W 117°42'0 0.0
2017-Nov-10 05:30N 33°28' W 117°42'0 0.0
2017-Nov-10 05:00N 33°28' W 117°42'0 0.0
2017-Nov-10 04:30N 33°28' W 117°42'0 0.0
2017-Nov-10 04:00N 33°28' W 117°42'0 0.0
2017-Nov-10 03:30N 33°28' W 117°42'0 0.0
2017-Nov-10 03:00N 33°28' W 117°42'0 0.0
2017-Nov-10 02:30N 33°28' W 117°42'0 0.0
2017-Nov-10 02:00N 33°28' W 117°42'0 0.0
2017-Nov-10 01:30N 33°28' W 117°42'0 0.0
2017-Nov-10 01:00N 33°28' W 117°42'  

Dump ship's entire track history